Accueil
METAR-TAF:

METAR-TAF

Aéroports :

Seldovia, Alaska, États-Unis

latitude: 59-27N, longitude: 151-42W, altitude: 9 m

Observation

Le bulletin a été fait il y a 40 minutes, à 20:53 UTC
Vent 7 kt de nord
Température -2°C
Humidité 74%
Pression 1013 hPa
Visibilité: 16.1 km
Quelques nuages à une hauteur de 1400 ft

METAR: PASO 282053Z AUTO 01007KT 10SM FEW014 M02/M06 A2991 RMK AO2 SLP129 T10221061 53017 TSNO

Heure: 12:33 (21:33 UTC)


TAF: absent

Observations et prévisions météorologiques de plus de 4000 aéroports (messages METAR et TAF).

Les stations disponibles sont représentées par des disques jaunes et rouges sur la carte.

Passer la souris dessus pour voir le nom de la station.

Cliquer dessus pour voir les observations et prévisions météorologiques.

Pour changer de carte: cliquez sur les boutons verts avec une croix noire pour zoomer, sur le bouton vert avec un tiret pour effectuer un zoom arrière, ou sur les flèches vertes pour les cartes adjacentes.


METAR-TAF: